Twentynine Palms (Self) Airport
KNXP : now visible

Airfield :











YOU CAN JOIN US ON...

 
LOGIN :

Register | Disclaimer

   EN    FR    IT 

 









Legend :    VFR   Marginal VFR   IFR   Intensive IFR   Very Intensive IFR
Visi :
Ceiling :
>= 8 km
>= 3000ft
5 to 8 km
1000 to 3000 ft
1500m to 5 km
500 to 1000 ft
800 to 1500m
200 to 500 ft
< 800m
< 200 ft
Symbols :   Thunderstorms  Fog  Heavy snow  Heavy precipitations  Wind > 20 kt






- Airport Elevation : 2051 ft


KNXP - Twentynine Palms (Self)

CURRENT METAR :
  • 200656Z AUTO 28010G17KT 10SM CLR 27/02 A2970 RMK AO2 SLP015 T02720022

EXPIRED METARs :
  • 200556Z AUTO 23003KT 10SM CLR 25/06 A2971 RMK AO2 SLP023 T02500061 10356 20250 50003
  • 200456Z AUTO 24008KT 10SM CLR 27/05 A2973 RMK AO2 SLP026 T02670050

TAF TAF KNXP
Valid from the 20 at 03:00 until the 21 at 03:00 UTC


2003/2103 26020G30KT 9999 SKC 520006 520609 521501 QNH2979INS
BECMG 2006/2008 30015G25KT 9999 SKC 520006 520609 521501 QNH2966INS
BECMG 2019/2021 31010G20KT 9999 SKC 520006 520609 521501 QNH2966INS T20/2014Z T32/2023Z
KZLA FIR / North America



MET'MAP, your aeronautical weather chart ! - Copyright ORBIFLY December 2007 - Disclaimer

ORBIFLY MET'MAP TEAM :

Programming & Development : Alexandra Zaïnal
Original concept : Baudouin d'Aumeries
Technical & hardware support : Manuel Goepfert
Assistance : Marc-Olivier Méhu

Contact : metmap@orbifly.com




SOURCES & CREDITS :

   NOAA       Earth
Advisory